Freistatt, Missouri
Current Conditions -  °F | °C
As of 3:15 PM on Friday 28 Nov 2014 (Local Time) from KHFJ Reporting Station
Clear Clear  
Wind Chill: 59°   Ceiling: Unl
Heat Index: 59°   Visibility: 10mi
Dew Point: 36°   Wind: 16mph
Humidity: 42%   Direction: 200°SSW
Pressure: 29.91"   Gusts: 23mph
Location:  37.02°N, 93.9°W
Report Text: KHFJ 282115Z AUTO 20014G20KT 10SM CLR 15/02 A2991 RMK AO2
Loading
Personal Weather Stations






























Interactive Weather Map New forecast layout! Learn more

10-Day Weather Forecast

Advertisements
Track Severe Weather on mobile